Time;durP1;ratioP1;P1;durP2;ratioP2;P2;SDS_P1;SDS_P2;PMS_P1;PMS_P2;Temp;Humidity;BMP_temperature;BMP_pressure;BME280_temperature;BME280_humidity;BME280_pressure;Samples;Min_cycle;Max_cycle;Signal;HPM_P1;HPM_P2
2022/08/24 00:00:17;;;;;;;4.97;4.60;;;24.70;49.10;;;;;;4953096;29;20440;-45
2022/08/24 00:02:43;;;;;;;5.80;5.30;;;24.60;49.30;;;;;;4953595;29;20538;-46
2022/08/24 00:05:09;;;;;;;5.50;5.10;;;24.70;49.30;;;;;;4952723;29;20443;-47
2022/08/24 00:07:35;;;;;;;5.63;5.23;;;24.70;49.40;;;;;;4952087;29;20188;-47
2022/08/24 00:10:01;;;;;;;5.90;5.40;;;24.70;49.40;;;;;;4953013;29;20431;-45
2022/08/24 00:12:27;;;;;;;5.23;4.83;;;24.50;49.60;;;;;;4953246;29;20797;-46
2022/08/24 00:14:53;;;;;;;4.93;4.63;;;24.50;49.70;;;;;;4952369;28;20416;-45
2022/08/24 00:17:20;;;;;;;5.83;5.33;;;24.50;49.80;;;;;;4953756;29;20854;-45
2022/08/24 00:19:46;;;;;;;6.73;5.40;;;24.40;49.90;;;;;;4952811;29;20455;-45
2022/08/24 00:22:12;;;;;;;9.40;5.07;;;24.40;49.90;;;;;;4953187;29;20997;-46
2022/08/24 00:24:38;;;;;;;5.43;4.90;;;24.40;50.10;;;;;;4952786;29;20982;-45
2022/08/24 00:27:05;;;;;;;6.60;5.70;;;24.30;50.00;;;;;;4952737;29;20427;-46
2022/08/24 00:29:31;;;;;;;5.43;4.93;;;24.30;50.10;;;;;;4952586;29;21056;-46
2022/08/24 00:31:57;;;;;;;5.63;5.23;;;24.10;50.40;;;;;;4952884;28;20478;-47
2022/08/24 00:34:24;;;;;;;7.13;6.00;;;24.10;50.50;;;;;;4951226;29;20522;-46
2022/08/24 00:36:49;;;;;;;5.57;5.13;;;24.10;50.40;;;;;;4952754;29;21539;-46
2022/08/24 00:39:15;;;;;;;5.30;4.90;;;24.10;50.50;;;;;;4952257;29;20440;-45
2022/08/24 00:41:46;;;;;;;6.87;5.67;;;24.00;50.70;;;;;;4952926;29;20554;-45
2022/08/24 00:44:14;;;;;;;6.33;5.57;;;24.00;50.80;;;;;;4952638;29;20191;-45
2022/08/24 00:46:48;;;;;;;5.07;4.67;;;23.90;50.70;;;;;;4952675;29;20440;-45
2022/08/24 00:49:39;;;;;;;5.60;5.20;;;24.00;50.80;;;;;;4950984;28;20455;-45
2022/08/24 00:52:13;;;;;;;6.93;5.20;;;24.00;50.60;;;;;;4952818;29;20428;-45
2022/08/24 00:54:42;;;;;;;5.60;4.83;;;23.90;50.60;;;;;;4952234;29;20447;-45
2022/08/24 00:57:10;;;;;;;5.47;4.97;;;23.90;50.60;;;;;;4952740;29;20451;-45
2022/08/24 00:59:49;;;;;;;6.20;5.53;;;23.90;50.70;;;;;;4951845;29;20427;-46
2022/08/24 01:02:22;;;;;;;5.63;5.23;;;23.90;50.80;;;;;;4951091;29;20491;-46
2022/08/24 01:04:55;;;;;;;5.73;5.23;;;23.70;51.10;;;;;;4951878;29;20438;-45
2022/08/24 01:07:23;;;;;;;7.80;5.10;;;23.60;51.30;;;;;;4952783;29;20923;-45
2022/08/24 01:09:51;;;;;;;5.50;5.00;;;23.50;51.50;;;;;;4952162;29;20808;-47
2022/08/24 01:12:17;;;;;;;5.03;4.63;;;23.40;51.90;;;;;;4952903;29;20793;-46
2022/08/24 01:14:43;;;;;;;5.70;5.20;;;23.40;51.90;;;;;;4951394;28;20467;-45
2022/08/24 01:19:55;;;;;;;5.23;4.93;;;23.00;52.40;;;;;;4952285;29;20482;-46
2022/08/24 01:22:40;;;;;;;5.50;5.10;;;22.80;53.00;;;;;;4935289;29;20873;-45
2022/08/24 01:25:06;;;;;;;5.27;4.87;;;22.70;53.40;;;;;;4951749;29;20435;-46
2022/08/24 01:27:34;;;;;;;5.87;5.40;;;22.50;54.00;;;;;;4950911;29;20427;-44
2022/08/24 01:30:03;;;;;;;5.67;5.10;;;22.30;54.50;;;;;;4952028;29;20434;-45
2022/08/24 01:32:29;;;;;;;5.60;5.10;;;22.40;54.50;;;;;;4952597;29;20467;-45
2022/08/24 01:34:55;;;;;;;5.63;4.90;;;22.40;54.30;;;;;;4951631;29;20866;-45
2022/08/24 01:37:21;;;;;;;5.03;4.63;;;22.50;54.00;;;;;;4952578;29;20203;-46
2022/08/24 01:39:50;;;;;;;5.17;4.77;;;22.60;53.70;;;;;;4952012;29;20994;-45
2022/08/24 01:42:16;;;;;;;6.10;5.47;;;22.70;53.30;;;;;;4952519;28;20491;-45
2022/08/24 01:44:44;;;;;;;7.00;5.30;;;22.70;53.00;;;;;;4954918;29;20434;-45
2022/08/24 01:47:12;;;;;;;5.83;5.33;;;22.70;52.90;;;;;;4956066;29;20203;-46
2022/08/24 01:49:41;;;;;;;5.43;4.63;;;22.70;52.70;;;;;;4955799;29;20483;-45
2022/08/24 01:52:09;;;;;;;6.00;5.27;;;22.60;52.90;;;;;;4956123;29;20804;-45
2022/08/24 01:54:35;;;;;;;6.47;4.83;;;22.40;53.30;;;;;;4953969;29;20431;-45
2022/08/24 01:57:00;;;;;;;6.13;5.07;;;22.10;54.10;;;;;;4955612;29;20490;-46
2022/08/24 01:59:26;;;;;;;5.73;4.53;;;21.90;54.70;;;;;;4955620;29;20199;-45
2022/08/24 02:01:57;;;;;;;9.67;5.40;;;21.90;54.90;;;;;;4955937;29;20274;-45
2022/08/24 02:04:23;;;;;;;6.10;4.60;;;21.90;55.30;;;;;;4955476;29;21202;-45
2022/08/24 02:06:49;;;;;;;5.17;4.77;;;22.00;54.60;;;;;;4955430;29;20452;-45
2022/08/24 02:09:15;;;;;;;6.10;4.73;;;22.00;54.50;;;;;;4955604;29;20195;-45
2022/08/24 02:11:41;;;;;;;5.70;5.10;;;22.00;54.40;;;;;;4955748;29;20291;-45
2022/08/24 02:14:07;;;;;;;6.00;5.30;;;21.90;54.60;;;;;;4955050;28;20508;-45
2022/08/24 02:16:33;;;;;;;5.43;4.93;;;22.00;54.50;;;;;;4955215;29;20519;-47
2022/08/24 02:18:58;;;;;;;6.00;4.97;;;22.00;54.50;;;;;;4955408;29;20204;-46
2022/08/24 02:21:24;;;;;;;6.40;5.80;;;21.80;55.10;;;;;;4953810;29;20588;-45
2022/08/24 02:23:51;;;;;;;6.53;5.10;;;21.50;55.60;;;;;;4955906;29;20203;-45
2022/08/24 02:26:16;;;;;;;7.07;5.83;;;21.00;57.00;;;;;;4954671;29;20423;-45
2022/08/24 02:28:42;;;;;;;6.33;5.73;;;20.70;57.90;;;;;;4955556;29;20431;-45
2022/08/24 02:31:11;;;;;;;6.70;5.40;;;20.80;58.30;;;;;;4954867;29;20586;-45
2022/08/24 02:33:38;;;;;;;5.80;5.20;;;21.00;57.90;;;;;;4955127;29;20219;-45
2022/08/24 02:36:05;;;;;;;6.90;6.10;;;20.90;57.80;;;;;;4954634;29;20471;-46
2022/08/24 02:38:31;;;;;;;6.23;5.63;;;21.10;57.50;;;;;;4955474;29;20452;-45
2022/08/24 02:40:56;;;;;;;6.27;5.63;;;21.20;57.10;;;;;;4954743;29;20587;-45
2022/08/24 02:43:23;;;;;;;6.57;5.77;;;21.20;56.90;;;;;;4955039;29;20723;-45
2022/08/24 02:45:49;;;;;;;6.03;5.43;;;21.10;57.10;;;;;;4954318;29;20200;-46
2022/08/24 02:48:16;;;;;;;5.87;5.37;;;21.10;57.20;;;;;;4953342;29;20467;-45
2022/08/24 02:50:45;;;;;;;5.70;5.30;;;21.00;57.20;;;;;;4954602;29;20546;-46
2022/08/24 02:53:13;;;;;;;6.70;6.20;;;20.90;57.60;;;;;;4954798;29;20506;-45
2022/08/24 02:55:40;;;;;;;7.67;6.30;;;20.90;57.70;;;;;;4952615;28;20444;-47
2022/08/24 02:58:08;;;;;;;6.37;5.77;;;20.80;57.80;;;;;;4955104;29;20931;-45
2022/08/24 03:00:35;;;;;;;5.67;5.27;;;20.70;57.90;;;;;;4954393;29;20875;-45
2022/08/24 03:03:01;;;;;;;5.90;5.50;;;20.80;57.80;;;;;;4954813;29;20802;-44
2022/08/24 03:05:27;;;;;;;6.73;5.70;;;20.60;57.60;;;;;;4953857;29;20443;-45
2022/08/24 03:07:53;;;;;;;5.60;5.20;;;20.70;57.80;;;;;;4954678;29;20424;-45
2022/08/24 03:10:20;;;;;;;5.47;4.97;;;20.80;57.60;;;;;;4954605;29;20753;-46
2022/08/24 03:12:46;;;;;;;5.10;4.80;;;20.90;57.10;;;;;;4954243;29;20650;-45
2022/08/24 03:15:12;;;;;;;5.77;5.37;;;21.00;56.80;;;;;;4952227;28;21008;-45
2022/08/24 03:17:39;;;;;;;5.33;4.93;;;21.10;56.30;;;;;;4954601;29;20431;-46
2022/08/24 03:20:09;;;;;;;7.03;5.20;;;21.00;56.20;;;;;;4954087;29;20427;-47
2022/08/24 03:22:36;;;;;;;6.03;5.53;;;21.10;56.10;;;;;;4954319;29;20487;-49
2022/08/24 03:25:03;;;;;;;5.37;4.87;;;21.00;56.20;;;;;;4953643;29;20423;-49
2022/08/24 03:27:28;;;;;;;7.87;5.37;;;21.00;56.30;;;;;;4954516;29;20484;-46
2022/08/24 03:29:54;;;;;;;5.93;5.20;;;21.00;56.40;;;;;;4953870;29;20459;-46
2022/08/24 03:32:19;;;;;;;6.17;5.67;;;20.90;56.60;;;;;;4954474;29;21033;-49
2022/08/24 03:34:45;;;;;;;5.60;4.93;;;20.90;56.90;;;;;;4953519;29;20200;-50
2022/08/24 03:37:11;;;;;;;6.60;6.10;;;20.90;56.40;;;;;;4954325;29;20606;-48
2022/08/24 03:39:37;;;;;;;5.93;5.33;;;20.90;56.70;;;;;;4953918;29;20204;-49
2022/08/24 03:42:03;;;;;;;5.60;5.10;;;20.90;56.60;;;;;;4952476;29;20488;-46
2022/08/24 03:44:29;;;;;;;5.97;5.40;;;20.80;56.60;;;;;;4953155;29;20470;-50
2022/08/24 03:46:55;;;;;;;6.63;5.93;;;20.80;56.70;;;;;;4953980;29;20436;-50
2022/08/24 03:49:21;;;;;;;6.23;5.60;;;20.70;57.00;;;;;;4953694;29;20199;-45
2022/08/24 03:51:46;;;;;;;5.87;5.00;;;20.50;57.50;;;;;;4954076;29;20267;-49
2022/08/24 03:54:13;;;;;;;5.73;5.23;;;20.40;57.90;;;;;;4953171;29;20915;-46
2022/08/24 03:56:39;;;;;;;6.33;5.73;;;20.20;58.30;;;;;;4953414;29;20204;-46
2022/08/24 03:59:06;;;;;;;7.10;6.50;;;20.20;58.20;;;;;;4953246;29;20853;-47
2022/08/24 04:01:32;;;;;;;6.53;5.87;;;20.30;58.00;;;;;;4953639;29;20852;-49
2022/08/24 04:03:58;;;;;;;5.60;5.20;;;20.40;57.60;;;;;;4953577;29;20430;-48
2022/08/24 04:06:24;;;;;;;5.40;5.00;;;20.40;57.60;;;;;;4952479;28;20428;-46
2022/08/24 04:08:51;;;;;;;7.23;6.07;;;20.20;58.20;;;;;;4952152;29;20222;-47
2022/08/24 04:11:21;;;;;;;8.00;6.00;;;20.10;58.60;;;;;;4953068;29;20428;-50
2022/08/24 04:13:50;;;;;;;5.57;5.17;;;19.90;59.00;;;;;;4953565;28;20467;-49
2022/08/24 04:16:17;;;;;;;6.70;5.80;;;20.00;58.80;;;;;;4952499;29;20490;-47
2022/08/24 04:18:43;;;;;;;6.27;5.63;;;20.20;58.40;;;;;;4953653;29;20873;-49
2022/08/24 04:21:24;;;;;;;5.97;5.47;;;20.20;58.20;;;;;;4952774;29;20579;-49
2022/08/24 04:23:51;;;;;;;12.40;6.23;;;20.10;58.30;;;;;;4953693;29;20493;-48
2022/08/24 04:26:18;;;;;;;7.50;6.07;;;20.00;58.60;;;;;;4952484;29;20428;-47
2022/08/24 04:28:44;;;;;;;6.37;5.77;;;20.10;58.30;;;;;;4953622;29;20443;-46
2022/08/24 04:31:10;;;;;;;5.27;4.77;;;20.10;58.10;;;;;;4952796;29;20444;-47
2022/08/24 04:33:37;;;;;;;5.60;5.10;;;20.10;58.10;;;;;;4953312;29;20203;-46
2022/08/24 04:36:07;;;;;;;6.10;5.60;;;20.10;58.00;;;;;;4950687;29;20282;-47
2022/08/24 04:38:33;;;;;;;6.33;5.60;;;20.10;58.20;;;;;;4952976;29;20535;-46
2022/08/24 04:40:59;;;;;;;6.30;5.70;;;19.90;58.70;;;;;;4952466;29;20526;-46
2022/08/24 04:43:25;;;;;;;6.40;4.83;;;20.00;58.40;;;;;;4952900;29;20459;-46
2022/08/24 04:45:51;;;;;;;6.23;5.57;;;20.20;57.80;;;;;;4952190;29;20207;-46
2022/08/24 04:48:17;;;;;;;6.47;5.87;;;20.40;57.40;;;;;;4953106;29;20194;-50
2022/08/24 04:50:43;;;;;;;6.60;5.90;;;20.50;57.00;;;;;;4952497;29;20200;-48
2022/08/24 04:53:11;;;;;;;6.57;5.97;;;20.50;57.00;;;;;;4952828;29;20810;-46
2022/08/24 04:55:45;;;;;;;5.57;5.07;;;20.40;57.40;;;;;;4951792;29;20200;-49
2022/08/24 04:58:13;;;;;;;6.20;5.70;;;20.30;57.60;;;;;;4952815;29;20489;-50
2022/08/24 05:00:39;;;;;;;5.47;5.07;;;20.00;58.20;;;;;;4952040;29;20446;-46
2022/08/24 05:03:05;;;;;;;7.10;6.00;;;20.00;58.50;;;;;;4950839;29;20436;-46
2022/08/24 05:05:32;;;;;;;7.13;6.30;;;20.00;58.50;;;;;;4952072;29;20496;-46
2022/08/24 05:07:57;;;;;;;9.13;5.43;;;19.90;58.70;;;;;;4952665;29;20423;-46
2022/08/24 05:10:23;;;;;;;27.33;18.83;;;20.00;58.60;;;;;;4952263;29;20514;-47
2022/08/24 05:12:49;;;;;;;13.77;8.70;;;20.00;58.40;;;;;;4952457;29;20322;-46
2022/08/24 05:15:15;;;;;;;7.60;6.83;;;20.10;58.30;;;;;;4951655;28;20200;-46
2022/08/24 05:17:41;;;;;;;5.93;5.40;;;19.90;58.60;;;;;;4951917;29;20503;-46
2022/08/24 05:20:09;;;;;;;5.20;4.70;;;20.00;58.50;;;;;;4952072;29;20203;-46
2022/08/24 05:22:35;;;;;;;5.70;4.87;;;20.10;58.30;;;;;;4952304;29;20487;-45
2022/08/24 05:25:00;;;;;;;5.40;4.97;;;20.10;57.90;;;;;;4951669;29;20547;-47
2022/08/24 05:27:26;;;;;;;5.10;4.70;;;19.90;58.00;;;;;;4952620;29;20867;-46
2022/08/24 05:29:53;;;;;;;5.20;4.80;;;20.00;58.20;;;;;;4950429;29;20196;-46
2022/08/24 05:32:19;;;;;;;5.93;5.43;;;20.20;57.80;;;;;;4952783;29;20237;-49
2022/08/24 05:34:45;;;;;;;7.43;5.47;;;20.30;57.60;;;;;;4951431;29;20466;-46
2022/08/24 05:37:11;;;;;;;5.47;4.97;;;20.10;58.10;;;;;;4952425;29;20531;-48
2022/08/24 05:39:37;;;;;;;6.60;6.03;;;20.00;58.00;;;;;;4950664;28;20196;-47
2022/08/24 05:42:03;;;;;;;7.20;5.63;;;19.90;58.40;;;;;;4952524;29;20224;-46
2022/08/24 05:44:29;;;;;;;5.80;5.37;;;20.10;58.30;;;;;;4951505;29;21010;-46
2022/08/24 05:46:57;;;;;;;6.13;5.53;;;20.20;58.00;;;;;;4952360;29;20668;-47
2022/08/24 05:49:23;;;;;;;6.20;5.67;;;20.30;57.90;;;;;;4951805;29;20443;-47
2022/08/24 05:51:50;;;;;;;5.70;5.30;;;20.40;57.70;;;;;;4952670;29;20435;-46
2022/08/24 05:54:16;;;;;;;5.37;4.87;;;20.60;57.40;;;;;;4951411;29;20435;-46
2022/08/24 05:56:42;;;;;;;6.00;5.30;;;20.70;56.90;;;;;;4950383;29;20522;-46
2022/08/24 05:59:08;;;;;;;5.70;5.20;;;20.50;57.30;;;;;;4951739;29;20203;-45
2022/08/24 06:01:34;;;;;;;5.80;5.40;;;20.40;57.80;;;;;;4951949;29;20486;-46
2022/08/24 06:04:00;;;;;;;6.43;5.77;;;20.40;57.90;;;;;;4951780;29;20614;-45
2022/08/24 06:06:26;;;;;;;5.40;5.00;;;20.40;57.80;;;;;;4951866;29;20204;-47
2022/08/24 06:08:55;;;;;;;5.73;5.23;;;20.40;58.00;;;;;;4952358;29;20196;-46
2022/08/24 06:11:23;;;;;;;5.73;5.17;;;20.60;57.70;;;;;;4951805;29;20467;-46
2022/08/24 06:13:50;;;;;;;5.57;5.07;;;20.80;57.00;;;;;;4951874;28;20498;-46
2022/08/24 06:16:16;;;;;;;6.07;5.30;;;20.90;56.50;;;;;;4951078;29;20420;-46
2022/08/24 06:18:41;;;;;;;5.93;5.43;;;20.90;56.30;;;;;;4952198;29;20443;-47
2022/08/24 06:21:13;;;;;;;5.00;4.50;;;21.00;56.50;;;;;;4951536;29;20223;-47
2022/08/24 06:23:40;;;;;;;4.77;4.37;;;21.40;55.70;;;;;;4950130;29;20207;-46
2022/08/24 06:28:51;;;;;;;5.60;4.53;;;22.30;53.90;;;;;;4952461;28;20435;-46
2022/08/24 06:31:17;;;;;;;4.90;4.50;;;22.50;53.20;;;;;;4954773;29;20427;-46
2022/08/24 06:33:43;;;;;;;6.40;4.53;;;22.00;53.80;;;;;;4955372;29;20574;-45
2022/08/24 06:36:08;;;;;;;7.00;4.20;;;22.20;54.00;;;;;;4954470;29;20436;-46
2022/08/24 06:38:34;;;;;;;5.80;4.30;;;22.60;53.50;;;;;;4955300;29;20207;-46
2022/08/24 06:41:00;;;;;;;5.50;4.43;;;23.00;52.40;;;;;;4954610;29;20223;-46
2022/08/24 06:43:26;;;;;;;5.73;4.80;;;23.20;52.10;;;;;;4955256;29;20200;-47
2022/08/24 06:45:53;;;;;;;4.73;4.43;;;23.50;51.30;;;;;;4954280;29;21355;-46
2022/08/24 06:48:19;;;;;;;4.23;3.93;;;23.60;50.90;;;;;;4955092;29;20610;-46
2022/08/24 06:50:46;;;;;;;4.67;4.20;;;23.80;50.40;;;;;;4952872;29;20431;-46
2022/08/24 06:53:13;;;;;;;4.27;3.87;;;24.00;50.30;;;;;;4954973;29;20727;-46
2022/08/24 06:55:54;;;;;;;4.13;3.80;;;24.30;49.70;;;;;;4954060;29;20946;-46
2022/08/24 06:58:20;;;;;;;4.87;4.00;;;24.60;49.10;;;;;;4954865;29;20435;-46
2022/08/24 07:00:47;;;;;;;3.97;3.60;;;24.70;48.40;;;;;;4954419;29;20424;-48
2022/08/24 07:03:14;;;;;;;4.60;3.80;;;24.80;48.20;;;;;;4954807;29;20444;-47
2022/08/24 07:05:39;;;;;;;6.40;3.73;;;24.80;47.60;;;;;;4954130;29;20915;-46
2022/08/24 07:08:06;;;;;;;3.50;3.20;;;25.00;47.40;;;;;;4954476;29;20432;-46
2022/08/24 07:10:33;;;;;;;4.10;3.70;;;25.30;45.90;;;;;;4954178;29;20247;-46
2022/08/24 07:12:59;;;;;;;5.53;3.70;;;25.20;45.80;;;;;;4954694;29;20901;-47
2022/08/24 07:15:25;;;;;;;5.20;2.87;;;25.40;45.60;;;;;;4953694;28;20526;-46
2022/08/24 07:17:52;;;;;;;4.40;3.00;;;25.70;44.80;;;;;;4952880;29;20567;-46
2022/08/24 07:20:17;;;;;;;3.90;3.50;;;25.90;43.90;;;;;;4954142;29;20432;-46
2022/08/24 07:22:43;;;;;;;4.90;3.57;;;26.00;43.90;;;;;;4954481;29;20937;-47
2022/08/24 07:25:11;;;;;;;3.90;3.03;;;25.80;43.90;;;;;;4953602;29;20588;-46
2022/08/24 07:27:37;;;;;;;3.70;3.40;;;25.90;44.20;;;;;;4954036;29;20202;-48
2022/08/24 07:30:04;;;;;;;3.53;3.23;;;25.90;43.10;;;;;;4953852;29;21278;-46
2022/08/24 07:32:30;;;;;;;3.40;2.43;;;25.90;43.10;;;;;;4954409;29;20802;-47
2022/08/24 07:34:55;;;;;;;3.43;2.97;;;26.10;42.80;;;;;;4953531;29;20435;-46
2022/08/24 07:37:21;;;;;;;3.67;3.33;;;26.30;42.30;;;;;;4954277;29;20195;-47
2022/08/24 07:39:47;;;;;;;5.13;2.93;;;26.50;41.80;;;;;;4953503;29;20203;-47
2022/08/24 07:42:12;;;;;;;3.10;2.47;;;26.60;41.90;;;;;;4953240;28;20849;-46
2022/08/24 07:44:38;;;;;;;3.60;2.70;;;26.50;42.60;;;;;;4951766;29;20211;-46
2022/08/24 07:47:04;;;;;;;3.83;3.03;;;26.60;42.10;;;;;;4954419;29;20196;-47
2022/08/24 07:49:31;;;;;;;4.20;3.80;;;26.60;43.10;;;;;;4953172;29;20213;-46
2022/08/24 07:51:56;;;;;;;3.20;3.00;;;26.80;42.40;;;;;;4954021;29;20208;-46
2022/08/24 07:54:22;;;;;;;3.47;3.07;;;27.00;42.10;;;;;;4953016;29;21312;-47
2022/08/24 07:56:49;;;;;;;3.70;3.40;;;27.50;41.80;;;;;;4953932;29;20187;-47
2022/08/24 07:59:15;;;;;;;2.97;2.73;;;27.80;40.60;;;;;;4953172;29;20192;-46
2022/08/24 08:01:41;;;;;;;3.47;2.87;;;27.90;40.40;;;;;;4953821;29;20491;-46
2022/08/24 08:04:07;;;;;;;4.97;3.20;;;27.90;40.10;;;;;;4953019;29;20420;-46
2022/08/24 08:06:33;;;;;;;3.03;2.83;;;28.00;39.50;;;;;;4953527;29;20663;-47
2022/08/24 08:08:58;;;;;;;2.70;2.50;;;28.30;39.10;;;;;;4953262;29;20427;-46
2022/08/24 08:11:24;;;;;;;3.53;2.70;;;28.60;38.10;;;;;;4951888;29;20187;-47
2022/08/24 08:13:50;;;;;;;2.20;2.07;;;28.80;37.10;;;;;;4953690;28;20701;-49
2022/08/24 08:16:15;;;;;;;3.03;2.80;;;28.90;35.80;;;;;;4952744;29;20203;-46
2022/08/24 08:18:42;;;;;;;2.77;2.57;;;28.70;37.10;;;;;;4953284;29;20207;-46
2022/08/24 08:24:13;;;;;;;3.60;2.60;;;29.10;37.00;;;;;;4952757;29;20220;-46
2022/08/24 08:24:14;;;;;;;5.17;3.10;;;29.30;36.70;;;;;;4953159;29;20431;-51
2022/08/24 08:26:40;;;;;;;4.67;2.80;;;29.80;36.30;;;;;;4953590;29;20438;-47
2022/08/24 08:29:07;;;;;;;3.00;2.33;;;30.10;35.60;;;;;;4952529;29;20428;-47
2022/08/24 08:31:32;;;;;;;2.43;2.33;;;30.30;35.30;;;;;;4951958;28;20440;-46
2022/08/24 08:33:58;;;;;;;3.83;3.00;;;30.40;34.90;;;;;;4952748;29;20884;-50
2022/08/24 08:36:24;;;;;;;3.60;2.20;;;30.50;33.60;;;;;;4952830;29;20208;-47
2022/08/24 08:38:50;;;;;;;2.30;2.20;;;30.30;33.40;;;;;;4951490;29;20938;-49
2022/08/24 08:41:18;;;;;;;2.73;2.47;;;30.30;34.00;;;;;;4952545;29;20600;-46
2022/08/24 08:43:51;;;;;;;3.07;2.87;;;30.50;33.90;;;;;;4953099;29;20436;-47
2022/08/24 08:46:33;;;;;;;2.70;2.40;;;30.50;33.00;;;;;;4952329;29;20534;-47
2022/08/24 08:49:21;;;;;;;4.40;2.47;;;30.60;33.80;;;;;;4952623;29;20821;-47
2022/08/24 08:52:04;;;;;;;4.63;2.20;;;30.50;32.90;;;;;;4953148;28;20456;-48
2022/08/24 08:55:01;;;;;;;2.50;2.30;;;30.70;33.20;;;;;;4952023;29;20993;-47
2022/08/24 08:57:47;;;;;;;3.03;2.53;;;31.10;33.10;;;;;;4952615;29;20443;-48
2022/08/24 09:00:23;;;;;;;3.60;2.20;;;31.40;32.80;;;;;;4952325;29;20528;-47
2022/08/24 09:03:16;;;;;;;2.73;2.53;;;31.70;32.00;;;;;;4952763;29;20490;-47
2022/08/24 09:06:12;;;;;;;4.13;2.60;;;31.60;32.10;;;;;;4951025;29;20442;-47
2022/08/24 09:08:56;;;;;;;3.83;2.27;;;31.70;32.40;;;;;;4940587;29;20527;-49
2022/08/24 09:11:47;;;;;;;2.60;2.43;;;31.70;32.50;;;;;;4952177;29;20431;-47
2022/08/24 09:14:48;;;;;;;3.33;2.30;;;32.10;32.70;;;;;;4951403;28;20467;-47
2022/08/24 09:17:24;;;;;;;2.73;2.53;;;32.50;32.20;;;;;;4952728;29;20526;-47
2022/08/24 09:20:17;;;;;;;2.43;2.23;;;32.80;31.10;;;;;;4952384;29;20430;-46
2022/08/24 09:22:46;;;;;;;2.67;2.47;;;33.00;31.00;;;;;;4952678;29;20483;-47
2022/08/24 09:25:19;;;;;;;2.93;2.00;;;33.20;31.10;;;;;;4951837;29;20439;-47
2022/08/24 09:28:22;;;;;;;3.40;2.10;;;33.20;30.90;;;;;;4952253;29;20440;-46
2022/08/24 09:31:27;;;;;;;2.33;1.97;;;33.10;31.10;;;;;;4951957;29;21052;-47
2022/08/24 09:34:06;;;;;;;2.40;2.20;;;33.20;30.90;;;;;;4950978;29;20427;-48
2022/08/24 09:37:01;;;;;;;2.60;2.40;;;33.20;30.50;;;;;;4952292;29;20802;-46
2022/08/24 09:39:49;;;;;;;2.80;2.60;;;33.20;30.30;;;;;;4946547;29;20448;-46
2022/08/24 09:42:34;;;;;;;2.90;2.70;;;33.40;30.50;;;;;;4952460;29;20487;-47
2022/08/24 09:45:22;;;;;;;2.70;2.43;;;33.20;31.00;;;;;;4951682;29;20442;-47
2022/08/24 09:48:19;;;;;;;3.00;2.70;;;33.20;30.80;;;;;;4941869;29;20459;-47
2022/08/24 09:51:00;;;;;;;2.50;2.40;;;32.90;31.10;;;;;;4941533;29;20448;-46
2022/08/24 09:54:02;;;;;;;2.00;1.90;;;33.00;31.50;;;;;;4952298;29;20438;-47
2022/08/24 09:57:07;;;;;;;2.17;2.07;;;33.60;30.80;;;;;;4951946;29;20438;-48
2022/08/24 10:00:13;;;;;;;2.50;2.30;;;34.10;29.80;;;;;;4950221;29;20438;-47
2022/08/24 10:02:58;;;;;;;2.30;2.20;;;34.10;30.10;;;;;;4952094;29;20526;-50
2022/08/24 10:05:30;;;;;;;2.93;2.73;;;33.60;30.50;;;;;;4954105;28;20447;-50
2022/08/24 10:08:14;;;;;;;2.47;1.90;;;34.10;30.50;;;;;;4955675;29;20468;-48
2022/08/24 10:11:14;;;;;;;2.27;2.13;;;34.70;29.90;;;;;;4955249;29;20788;-47
2022/08/24 10:13:54;;;;;;;2.63;2.43;;;34.40;29.80;;;;;;4955668;29;20534;-51
2022/08/24 10:16:49;;;;;;;2.30;1.97;;;34.40;29.40;;;;;;4953983;29;21216;-51
2022/08/24 10:20:04;;;;;;;2.60;2.40;;;34.70;29.40;;;;;;4955111;29;20463;-47
2022/08/24 10:22:55;;;;;;;3.03;2.23;;;35.20;29.10;;;;;;4896349;29;20494;-52
2022/08/24 10:25:45;;;;;;;2.33;2.23;;;34.90;28.60;;;;;;4954124;29;20447;-49
2022/08/24 10:28:43;;;;;;;2.90;2.30;;;34.70;29.10;;;;;;4955776;29;20443;-48
2022/08/24 10:31:22;;;;;;;2.50;2.30;;;34.90;28.20;;;;;;4955229;29;20455;-48
2022/08/24 10:34:05;;;;;;;2.33;2.23;;;34.90;28.40;;;;;;4955067;29;20844;-48
2022/08/24 10:37:03;;;;;;;2.30;2.20;;;35.20;28.30;;;;;;4955775;29;20526;-47
2022/08/24 10:39:41;;;;;;;2.03;1.93;;;35.20;27.60;;;;;;4955109;29;20436;-49
2022/08/24 10:45:30;;;;;;;2.60;2.40;;;35.50;26.90;;;;;;4954765;29;20439;-47
2022/08/24 10:48:28;;;;;;;2.10;2.00;;;35.80;27.40;;;;;;4955272;29;20438;-51
2022/08/24 10:51:03;;;;;;;2.93;2.20;;;35.90;27.30;;;;;;4954876;29;20443;-47
2022/08/24 10:53:30;;;;;;;1.70;1.60;;;36.30;26.70;;;;;;4953586;29;20934;-48
2022/08/24 10:56:04;;;;;;;2.07;1.97;;;36.60;26.20;;;;;;4954317;29;20446;-52
2022/08/24 10:58:57;;;;;;;2.30;2.20;;;36.90;25.70;;;;;;4953895;28;20526;-49
2022/08/24 11:01:33;;;;;;;1.90;1.80;;;37.30;25.60;;;;;;4954321;29;20907;-48
2022/08/24 11:04:09;;;;;;;2.00;1.90;;;37.50;25.00;;;;;;4954117;29;20430;-51
2022/08/24 11:06:41;;;;;;;2.10;2.00;;;37.60;25.00;;;;;;4954713;29;20605;-48
2022/08/24 11:09:06;;;;;;;2.20;1.80;;;37.60;24.50;;;;;;4954343;29;20434;-48
2022/08/24 11:11:34;;;;;;;2.07;1.97;;;37.70;24.20;;;;;;4954859;29;20431;-48
2022/08/24 11:14:23;;;;;;;1.90;1.70;;;37.90;24.20;;;;;;4953711;28;20714;-51
2022/08/24 11:16:49;;;;;;;2.33;2.00;;;38.00;23.50;;;;;;4942056;29;20450;-48
2022/08/24 11:19:33;;;;;;;2.37;2.20;;;38.30;23.80;;;;;;4953187;29;20431;-52
2022/08/24 11:22:39;;;;;;;2.50;2.30;;;37.80;23.50;;;;;;4954361;29;20508;-49
2022/08/24 11:25:21;;;;;;;2.00;1.90;;;37.80;23.80;;;;;;4953640;29;20438;-48
2022/08/24 11:27:56;;;;;;;2.43;2.23;;;38.00;23.80;;;;;;4954851;29;20462;-48
2022/08/24 11:30:28;;;;;;;2.53;2.40;;;38.10;23.60;;;;;;4954042;29;20922;-48
2022/08/24 11:32:55;;;;;;;2.40;2.20;;;38.20;23.90;;;;;;4954419;29;20435;-49
2022/08/24 11:35:36;;;;;;;2.30;2.10;;;38.50;23.70;;;;;;4953500;29;20490;-50
2022/08/24 11:38:13;;;;;;;2.03;1.93;;;38.00;23.70;;;;;;4954448;29;20580;-51
2022/08/24 11:40:48;;;;;;;2.40;1.90;;;37.40;24.10;;;;;;4953653;29;20438;-51
2022/08/24 11:43:27;;;;;;;1.73;1.63;;;36.90;24.80;;;;;;4953193;28;20470;-52
2022/08/24 11:46:20;;;;;;;2.40;2.00;;;37.20;24.70;;;;;;4953404;29;20426;-50
2022/08/24 11:48:52;;;;;;;2.00;1.90;;;37.60;24.80;;;;;;4954002;29;20433;-52
2022/08/24 11:51:42;;;;;;;1.73;1.63;;;38.00;24.00;;;;;;4953676;29;20442;-49
2022/08/24 11:54:38;;;;;;;1.83;1.70;;;38.30;24.00;;;;;;4953030;29;20431;-51
2022/08/24 11:57:12;;;;;;;1.80;1.70;;;38.10;22.90;;;;;;4953825;29;20442;-48
2022/08/24 11:59:53;;;;;;;2.07;1.93;;;37.80;22.80;;;;;;4953513;29;20439;-48
2022/08/24 12:02:28;;;;;;;2.27;2.07;;;37.20;23.10;;;;;;4953821;29;20506;-48
2022/08/24 12:04:58;;;;;;;5.30;2.00;;;36.70;23.70;;;;;;4952842;29;20446;-48
2022/08/24 12:07:54;;;;;;;1.90;1.80;;;36.80;23.90;;;;;;4953618;29;20493;-48
2022/08/24 12:10:40;;;;;;;2.10;2.00;;;36.90;23.50;;;;;;4935944;29;20482;-47
2022/08/24 12:13:20;;;;;;;2.27;2.07;;;37.10;24.00;;;;;;4952400;29;20982;-48
2022/08/24 12:15:49;;;;;;;2.23;2.07;;;37.10;23.20;;;;;;4952610;28;20435;-47
2022/08/24 12:18:49;;;;;;;2.90;1.60;;;36.70;23.80;;;;;;4953741;29;20428;-48
2022/08/24 12:21:18;;;;;;;1.90;1.80;;;36.30;24.30;;;;;;4952731;29;20510;-48
2022/08/24 12:23:48;;;;;;;2.00;1.90;;;36.10;24.80;;;;;;4952979;29;20454;-49
2022/08/24 12:26:44;;;;;;;2.30;2.10;;;36.10;24.80;;;;;;4952896;28;20534;-47
2022/08/24 12:29:20;;;;;;;2.40;2.30;;;36.50;24.30;;;;;;4952650;29;20527;-49
2022/08/24 12:31:54;;;;;;;1.87;1.73;;;36.20;24.50;;;;;;4953296;29;20881;-48
2022/08/24 12:34:39;;;;;;;2.40;1.97;;;36.10;24.20;;;;;;4952419;29;20435;-47
2022/08/24 12:37:07;;;;;;;2.27;2.00;;;35.90;23.90;;;;;;4953308;29;20431;-47
2022/08/24 12:39:46;;;;;;;2.23;1.80;;;36.00;24.20;;;;;;4952713;29;20436;-47
2022/08/24 12:42:21;;;;;;;2.30;2.10;;;36.20;23.80;;;;;;4952099;29;20998;-47
2022/08/24 12:44:50;;;;;;;1.73;1.63;;;36.10;23.80;;;;;;4952301;29;20431;-48
2022/08/24 12:47:40;;;;;;;5.73;5.13;;;35.60;23.60;;;;;;4953029;29;20439;-47
2022/08/24 12:50:21;;;;;;;3.10;2.10;;;35.50;24.10;;;;;;4941521;29;20522;-48
2022/08/24 12:53:17;;;;;;;1.90;1.80;;;35.60;24.50;;;;;;4953183;29;20543;-49
2022/08/24 12:56:03;;;;;;;2.40;2.30;;;36.00;25.30;;;;;;4952320;29;20510;-47
2022/08/24 12:58:53;;;;;;;2.03;1.83;;;35.90;24.40;;;;;;4952789;29;20447;-48
2022/08/24 13:01:21;;;;;;;2.30;2.20;;;35.60;24.60;;;;;;4952373;29;20525;-46
2022/08/24 13:04:01;;;;;;;1.87;1.77;;;35.70;24.70;;;;;;4952733;29;20426;-47
2022/08/24 13:06:39;;;;;;;2.30;2.20;;;36.00;25.10;;;;;;4952791;29;20419;-47
2022/08/24 13:09:26;;;;;;;2.70;2.50;;;35.90;24.40;;;;;;4950090;28;20442;-46
2022/08/24 13:11:54;;;;;;;2.33;2.23;;;35.70;24.60;;;;;;4952802;29;20428;-50
2022/08/24 13:14:25;;;;;;;2.60;2.40;;;35.50;25.00;;;;;;4951647;28;20600;-47
2022/08/24 13:17:09;;;;;;;2.47;2.27;;;35.60;25.00;;;;;;4953058;29;20800;-48
2022/08/24 13:19:41;;;;;;;2.30;2.10;;;35.60;25.00;;;;;;4952174;29;20490;-47